Time;durP1;ratioP1;P1;durP2;ratioP2;P2;SDS_P1;SDS_P2;PMS_P1;PMS_P2;Temp;Humidity;BMP_temperature;BMP_pressure;BME280_temperature;BME280_humidity;BME280_pressure;Samples;Min_cycle;Max_cycle;Signal;HPM_P1;HPM_P2
2021/08/16 00:00:45;;;;;;;5.68;3.30;;;21.70;99.90;;;;;;2071541;28;20029;-68
2021/08/16 00:01:45;;;;;;;6.80;3.28;;;21.60;99.90;;;;;;2071182;28;20037;-68
2021/08/16 00:02:46;;;;;;;8.40;3.25;;;21.60;99.90;;;;;;2071063;28;20037;-69
2021/08/16 00:03:46;;;;;;;5.35;3.63;;;21.60;99.90;;;;;;2071704;28;20033;-68
2021/08/16 00:04:47;;;;;;;6.80;3.60;;;21.60;99.90;;;;;;2065740;28;20026;-68
2021/08/16 00:05:48;;;;;;;6.18;4.05;;;21.60;99.90;;;;;;2066060;28;20470;-68
2021/08/16 00:06:48;;;;;;;3.72;3.10;;;21.60;99.90;;;;;;2069814;28;20037;-68
2021/08/16 00:07:49;;;;;;;5.80;3.03;;;21.60;99.90;;;;;;2071338;28;20030;-68
2021/08/16 00:08:49;;;;;;;6.70;3.47;;;21.50;99.90;;;;;;2071866;28;20429;-68
2021/08/16 00:09:50;;;;;;;8.07;3.50;;;21.60;99.90;;;;;;2074445;28;20081;-68
2021/08/16 00:10:51;;;;;;;4.20;3.20;;;21.60;99.90;;;;;;2071627;28;20030;-68
2021/08/16 00:11:51;;;;;;;5.38;3.40;;;21.50;99.90;;;;;;2071461;28;20115;-69
2021/08/16 00:12:52;;;;;;;9.07;3.50;;;21.50;99.90;;;;;;2071055;28;20030;-68
2021/08/16 00:13:52;;;;;;;7.68;3.40;;;21.50;99.90;;;;;;2071678;28;20097;-68
2021/08/16 00:14:53;;;;;;;6.28;3.53;;;21.40;99.90;;;;;;2071549;28;20022;-68
2021/08/16 00:15:53;;;;;;;5.25;3.30;;;21.40;99.90;;;;;;2071641;28;20030;-69
2021/08/16 00:16:56;;;;;;;5.55;3.28;;;21.40;99.90;;;;;;2071328;28;20152;-68
2021/08/16 00:17:59;;;;;;;3.47;2.70;;;21.40;99.90;;;;;;2071457;28;20030;-68
2021/08/16 00:19:00;;;;;;;4.63;2.67;;;21.30;99.90;;;;;;2071279;28;20501;-68
2021/08/16 00:20:01;;;;;;;5.88;3.00;;;21.30;99.90;;;;;;2071808;28;20038;-68
2021/08/16 00:21:02;;;;;;;4.95;3.00;;;21.40;99.90;;;;;;2071278;28;20454;-68
2021/08/16 00:22:03;;;;;;;3.83;2.90;;;21.30;99.90;;;;;;2071285;28;20068;-68
2021/08/16 00:23:04;;;;;;;7.15;3.17;;;21.30;99.90;;;;;;2070719;28;20033;-68
2021/08/16 00:24:04;;;;;;;6.22;3.45;;;21.30;99.90;;;;;;2071588;28;20075;-68
2021/08/16 00:25:05;;;;;;;4.68;2.78;;;21.30;99.90;;;;;;2072140;28;20021;-68
2021/08/16 00:26:06;;;;;;;6.60;2.78;;;21.40;99.90;;;;;;2071930;28;20129;-68
2021/08/16 00:27:07;;;;;;;4.65;2.88;;;21.40;99.90;;;;;;2071060;28;20056;-68
2021/08/16 00:28:07;;;;;;;3.42;2.83;;;21.40;99.90;;;;;;2071386;28;20112;-68
2021/08/16 00:29:08;;;;;;;7.53;3.13;;;21.40;99.90;;;;;;2071393;28;20101;-68
2021/08/16 00:30:09;;;;;;;3.70;2.78;;;21.40;99.90;;;;;;2071361;28;20040;-68
2021/08/16 00:31:10;;;;;;;5.05;2.63;;;21.30;99.90;;;;;;2071236;28;20085;-68
2021/08/16 00:32:10;;;;;;;4.38;2.65;;;21.30;99.90;;;;;;2071443;28;20029;-69
2021/08/16 00:33:11;;;;;;;6.03;2.85;;;21.30;99.90;;;;;;2071039;28;20461;-68
2021/08/16 00:34:11;;;;;;;3.83;2.40;;;21.20;99.90;;;;;;2071507;28;20022;-68
2021/08/16 00:35:12;;;;;;;3.90;2.65;;;21.20;99.90;;;;;;2071584;28;20434;-69
2021/08/16 00:36:12;;;;;;;6.63;2.85;;;21.20;99.90;;;;;;2071693;28;20160;-68
2021/08/16 00:37:13;;;;;;;6.22;2.78;;;21.20;99.90;;;;;;2071003;28;20095;-68
2021/08/16 00:38:14;;;;;;;8.05;3.17;;;21.20;99.90;;;;;;2071605;28;20026;-68
2021/08/16 00:39:14;;;;;;;5.50;2.78;;;21.20;99.90;;;;;;2072670;28;20037;-68
2021/08/16 00:40:15;;;;;;;4.30;2.50;;;21.10;99.90;;;;;;2072682;28;20032;-68
2021/08/16 00:41:18;;;;;;;6.75;2.55;;;21.10;99.90;;;;;;2073019;28;20424;-68
2021/08/16 00:42:20;;;;;;;2.72;2.22;;;21.10;99.90;;;;;;2074091;28;20045;-68
2021/08/16 00:43:20;;;;;;;6.00;2.03;;;21.10;99.90;;;;;;2072962;28;20026;-68
2021/08/16 00:44:21;;;;;;;5.53;2.53;;;21.10;99.90;;;;;;2072938;28;20466;-68
2021/08/16 00:45:21;;;;;;;3.35;2.00;;;21.00;99.90;;;;;;2073167;28;20030;-68
2021/08/16 00:46:22;;;;;;;7.03;2.00;;;21.00;99.90;;;;;;2072713;28;20037;-68
2021/08/16 00:47:23;;;;;;;3.72;2.08;;;21.00;99.90;;;;;;2072900;28;20033;-69
2021/08/16 00:48:24;;;;;;;3.00;1.90;;;21.00;99.90;;;;;;2073085;28;20037;-68
2021/08/16 00:49:24;;;;;;;5.63;2.75;;;21.00;99.90;;;;;;2072998;28;20049;-68
2021/08/16 00:50:25;;;;;;;2.65;2.08;;;21.00;99.90;;;;;;2072494;28;20022;-68
2021/08/16 00:51:27;;;;;;;5.38;2.13;;;20.90;99.90;;;;;;2072571;28;20026;-68
2021/08/16 00:52:28;;;;;;;3.67;2.45;;;20.90;99.90;;;;;;2072794;28;20462;-68
2021/08/16 00:53:31;;;;;;;5.00;2.40;;;20.90;99.90;;;;;;2072810;28;20492;-68
2021/08/16 00:54:32;;;;;;;4.43;1.95;;;20.90;99.90;;;;;;2072823;28;20026;-69
2021/08/16 00:55:34;;;;;;;3.13;2.15;;;20.90;99.90;;;;;;2073027;28;20081;-68
2021/08/16 00:56:36;;;;;;;4.20;1.98;;;20.90;99.90;;;;;;2072637;28;20072;-68
2021/08/16 00:57:38;;;;;;;7.50;2.72;;;20.80;99.90;;;;;;2072925;28;20034;-68
2021/08/16 00:58:39;;;;;;;4.38;2.08;;;20.80;99.90;;;;;;2076776;28;20029;-68
2021/08/16 00:59:40;;;;;;;4.35;2.17;;;20.80;99.90;;;;;;2073196;28;20033;-68
2021/08/16 01:00:40;;;;;;;3.97;2.50;;;20.80;99.90;;;;;;2072510;28;20112;-69
2021/08/16 01:01:41;;;;;;;5.85;2.10;;;20.70;99.90;;;;;;2072091;28;20076;-69
2021/08/16 01:02:43;;;;;;;5.07;2.25;;;20.70;99.90;;;;;;2072051;28;20041;-68
2021/08/16 01:03:43;;;;;;;4.65;2.30;;;20.70;99.90;;;;;;2072978;28;20018;-68
2021/08/16 01:04:44;;;;;;;4.78;2.45;;;20.70;99.90;;;;;;2072667;28;20036;-68
2021/08/16 01:05:45;;;;;;;7.00;2.30;;;20.70;99.90;;;;;;2072946;28;20018;-68
2021/08/16 01:06:47;;;;;;;5.50;2.05;;;20.70;99.90;;;;;;2072585;28;20026;-68
2021/08/16 01:07:49;;;;;;;5.95;2.13;;;20.70;99.80;;;;;;2072933;28;20026;-68
2021/08/16 01:08:50;;;;;;;5.05;2.45;;;20.60;99.90;;;;;;2072601;28;20033;-68
2021/08/16 01:09:51;;;;;;;6.25;2.28;;;20.60;99.70;;;;;;2072862;28;20552;-68
2021/08/16 01:10:52;;;;;;;6.05;2.00;;;20.60;99.90;;;;;;2072824;28;20041;-68
2021/08/16 01:11:53;;;;;;;5.28;1.88;;;20.50;99.90;;;;;;2072764;28;20028;-68
2021/08/16 01:12:53;;;;;;;5.43;2.72;;;20.50;99.90;;;;;;2071926;28;20045;-68
2021/08/16 01:13:54;;;;;;;5.05;2.40;;;20.50;99.90;;;;;;2070847;28;20761;-69
2021/08/16 01:14:55;;;;;;;3.35;1.92;;;20.50;99.90;;;;;;2072405;28;20033;-68
2021/08/16 01:16:00;;;;;;;5.22;2.50;;;20.50;99.90;;;;;;2072234;28;20026;-68
2021/08/16 01:17:01;;;;;;;4.40;2.20;;;20.50;99.80;;;;;;2072093;28;20026;-68
2021/08/16 01:18:02;;;;;;;3.67;1.75;;;20.50;99.90;;;;;;2072639;28;20021;-68
2021/08/16 01:19:04;;;;;;;5.22;2.30;;;20.40;99.80;;;;;;2072454;28;20421;-68
2021/08/16 01:20:07;;;;;;;7.57;2.03;;;20.50;99.70;;;;;;2072858;28;20021;-68
2021/08/16 01:21:11;;;;;;;5.55;2.75;;;20.40;99.90;;;;;;2072696;28;20060;-68
2021/08/16 01:22:12;;;;;;;4.00;2.30;;;20.40;99.90;;;;;;2072742;28;20026;-68
2021/08/16 01:23:12;;;;;;;4.47;2.67;;;20.40;99.70;;;;;;2071811;28;20014;-68
2021/08/16 01:24:14;;;;;;;4.63;3.03;;;20.40;99.80;;;;;;2072107;28;20030;-68
2021/08/16 01:25:14;;;;;;;7.13;2.63;;;20.40;99.80;;;;;;2071935;28;20025;-68
2021/08/16 01:26:15;;;;;;;5.75;2.83;;;20.40;99.90;;;;;;2072765;28;20018;-68
2021/08/16 01:27:15;;;;;;;5.57;2.65;;;20.50;99.80;;;;;;2072787;28;20385;-68
2021/08/16 01:28:18;;;;;;;7.50;3.15;;;20.50;99.70;;;;;;2072358;28;20417;-68
2021/08/16 01:29:22;;;;;;;6.05;3.13;;;20.40;99.50;;;;;;2067022;28;20036;-68
2021/08/16 01:30:22;;;;;;;6.80;2.85;;;20.40;99.60;;;;;;2072800;28;20060;-68
2021/08/16 01:31:23;;;;;;;9.98;3.45;;;20.40;99.80;;;;;;2073733;28;20057;-68
2021/08/16 01:32:24;;;;;;;6.63;3.03;;;20.40;99.90;;;;;;2072542;28;20030;-68
2021/08/16 01:33:25;;;;;;;4.95;2.80;;;20.30;99.90;;;;;;2071874;28;20092;-68
2021/08/16 01:34:27;;;;;;;9.32;3.58;;;20.40;99.90;;;;;;2072642;28;20018;-68
2021/08/16 01:35:28;;;;;;;7.03;3.85;;;20.30;99.90;;;;;;2072384;28;20125;-68
2021/08/16 01:36:28;;;;;;;7.88;3.72;;;20.30;99.90;;;;;;2072583;28;20581;-68
2021/08/16 01:37:29;;;;;;;7.03;3.50;;;20.30;99.90;;;;;;2071854;28;20034;-68
2021/08/16 01:38:32;;;;;;;9.00;3.50;;;20.20;99.90;;;;;;2072339;28;20090;-68
2021/08/16 01:39:32;;;;;;;9.40;3.65;;;20.20;99.90;;;;;;2072031;28;20037;-68
2021/08/16 01:40:33;;;;;;;7.35;3.92;;;20.20;99.90;;;;;;2072515;28;20022;-68
2021/08/16 01:41:35;;;;;;;7.85;3.88;;;20.20;99.90;;;;;;2071348;28;20033;-68
2021/08/16 01:42:35;;;;;;;9.05;4.07;;;20.10;99.90;;;;;;2071310;28;20030;-68
2021/08/16 01:43:36;;;;;;;10.45;4.32;;;20.10;99.90;;;;;;2072459;28;20029;-68
2021/08/16 01:44:36;;;;;;;7.55;3.72;;;20.20;99.90;;;;;;2075514;28;20404;-68
2021/08/16 01:45:37;;;;;;;10.93;4.45;;;20.20;99.90;;;;;;2074929;28;20045;-68
2021/08/16 01:46:37;;;;;;;10.18;4.00;;;20.20;99.90;;;;;;2072358;28;20054;-68
2021/08/16 01:47:38;;;;;;;7.05;3.67;;;20.10;99.90;;;;;;2072464;28;20604;-68
2021/08/16 01:48:39;;;;;;;8.68;3.80;;;20.10;99.90;;;;;;2072276;28;20740;-68
2021/08/16 01:49:39;;;;;;;7.43;3.40;;;20.10;99.90;;;;;;2072266;28;20037;-68
2021/08/16 01:50:42;;;;;;;15.02;3.90;;;20.00;99.90;;;;;;2071865;28;20470;-69
2021/08/16 01:51:42;;;;;;;8.48;4.50;;;20.00;99.90;;;;;;2072189;28;20032;-68
2021/08/16 01:52:43;;;;;;;8.43;4.22;;;20.00;99.90;;;;;;2071854;28;20451;-68
2021/08/16 01:53:44;;;;;;;9.10;4.07;;;20.00;99.90;;;;;;2072402;28;20065;-68
2021/08/16 01:54:44;;;;;;;7.97;4.32;;;19.90;99.90;;;;;;2072549;28;20449;-68
2021/08/16 01:55:45;;;;;;;11.43;4.05;;;19.90;99.90;;;;;;2072508;28;20544;-68
2021/08/16 01:56:45;;;;;;;12.55;4.60;;;19.90;99.90;;;;;;2072224;28;20103;-68
2021/08/16 01:57:46;;;;;;;7.68;3.38;;;19.90;99.90;;;;;;2072369;28;20572;-68
2021/08/16 01:58:47;;;;;;;9.52;3.95;;;19.90;99.90;;;;;;2078518;28;20117;-68
2021/08/16 01:59:48;;;;;;;8.82;3.78;;;19.80;99.90;;;;;;2077565;28;20034;-68
2021/08/16 02:00:48;;;;;;;9.57;3.78;;;19.90;99.90;;;;;;2072714;28;20458;-68
2021/08/16 02:01:49;;;;;;;13.98;4.63;;;19.80;99.90;;;;;;2073393;28;20061;-68
2021/08/16 02:02:49;;;;;;;7.38;3.53;;;19.90;99.90;;;;;;2073164;28;20030;-68
2021/08/16 02:03:50;;;;;;;9.13;3.70;;;19.80;99.90;;;;;;2073461;28;20032;-68
2021/08/16 02:04:50;;;;;;;8.32;3.65;;;19.80;99.90;;;;;;2073130;28;20879;-68
2021/08/16 02:05:51;;;;;;;6.45;3.55;;;19.80;99.90;;;;;;2073790;28;20025;-67
2021/08/16 02:06:51;;;;;;;11.77;3.78;;;19.80;99.90;;;;;;2073644;28;20025;-68
2021/08/16 02:07:52;;;;;;;9.88;4.03;;;19.70;99.90;;;;;;2073648;28;20423;-68
2021/08/16 02:08:52;;;;;;;9.90;3.22;;;19.70;99.90;;;;;;2073456;28;20109;-68
2021/08/16 02:09:53;;;;;;;7.88;3.38;;;19.70;99.90;;;;;;2073488;28;20034;-68
2021/08/16 02:10:53;;;;;;;8.48;3.70;;;19.70;99.90;;;;;;2073518;28;20030;-69
2021/08/16 02:11:54;;;;;;;11.98;4.05;;;19.70;99.90;;;;;;2074170;28;20473;-68
2021/08/16 02:12:54;;;;;;;8.43;3.55;;;19.70;99.90;;;;;;2077153;28;20076;-69
2021/08/16 02:13:55;;;;;;;6.57;3.30;;;19.60;99.90;;;;;;2073957;28;20026;-68
2021/08/16 02:14:56;;;;;;;11.52;3.53;;;19.60;99.90;;;;;;2073309;28;20026;-68
2021/08/16 02:15:56;;;;;;;9.10;3.45;;;19.60;99.90;;;;;;2073624;28;20029;-68
2021/08/16 02:16:57;;;;;;;9.18;3.40;;;19.60;99.90;;;;;;2073357;28;20038;-68
2021/08/16 02:17:57;;;;;;;6.10;2.72;;;19.60;99.90;;;;;;2073503;28;20029;-68
2021/08/16 02:18:58;;;;;;;7.47;2.67;;;19.60;99.90;;;;;;2078219;28;20374;-68
2021/08/16 02:19:58;;;;;;;6.13;2.90;;;19.60;99.90;;;;;;2073599;28;20080;-68
2021/08/16 02:20:59;;;;;;;11.82;3.63;;;19.60;99.90;;;;;;2073286;28;20022;-68
2021/08/16 02:22:00;;;;;;;10.80;3.30;;;19.60;99.90;;;;;;2072959;28;20022;-68
2021/08/16 02:23:00;;;;;;;7.82;3.10;;;19.60;99.90;;;;;;2073198;28;20022;-68
2021/08/16 02:24:01;;;;;;;10.65;3.20;;;19.60;99.90;;;;;;2073488;28;20030;-68
2021/08/16 02:25:02;;;;;;;7.32;3.17;;;19.60;99.90;;;;;;2073845;28;20042;-68
2021/08/16 02:26:02;;;;;;;9.38;2.90;;;19.60;99.90;;;;;;2073253;28;20061;-68
2021/08/16 02:27:03;;;;;;;6.78;2.83;;;19.60;99.90;;;;;;2073415;28;20168;-68
2021/08/16 02:28:04;;;;;;;9.95;3.90;;;19.60;99.90;;;;;;2073360;28;20034;-69
2021/08/16 02:29:05;;;;;;;11.57;2.85;;;19.50;99.90;;;;;;2073602;28;20410;-68
2021/08/16 02:30:06;;;;;;;8.38;3.13;;;19.50;99.90;;;;;;2073053;28;20022;-68
2021/08/16 02:31:06;;;;;;;9.82;3.35;;;19.50;99.90;;;;;;2073356;28;20391;-68
2021/08/16 02:32:07;;;;;;;9.38;3.33;;;19.50;99.90;;;;;;2073231;28;20029;-68
2021/08/16 02:33:08;;;;;;;7.60;3.17;;;19.50;99.90;;;;;;2078322;28;20061;-68
2021/08/16 02:34:08;;;;;;;7.55;3.08;;;19.50;99.90;;;;;;2074504;28;20076;-68
2021/08/16 02:35:10;;;;;;;8.43;3.15;;;19.50;99.90;;;;;;2073528;28;20024;-68
2021/08/16 02:36:10;;;;;;;7.38;2.80;;;19.50;99.90;;;;;;2073347;28;20121;-68
2021/08/16 02:37:11;;;;;;;10.95;3.47;;;19.50;99.90;;;;;;2073378;28;20026;-68
2021/08/16 02:38:12;;;;;;;9.43;3.10;;;19.50;99.90;;;;;;2073009;28;20061;-68
2021/08/16 02:39:13;;;;;;;8.43;3.17;;;19.50;99.90;;;;;;2073375;28;20029;-68
2021/08/16 02:40:14;;;;;;;8.60;3.53;;;19.50;99.90;;;;;;2073411;28;20028;-68
2021/08/16 02:41:15;;;;;;;7.13;2.67;;;19.50;99.90;;;;;;2073446;28;20022;-68
2021/08/16 02:42:15;;;;;;;8.40;3.53;;;19.50;99.90;;;;;;2072722;28;20104;-68
2021/08/16 02:43:16;;;;;;;8.02;3.30;;;19.50;99.90;;;;;;2073158;28;20474;-68
2021/08/16 02:44:16;;;;;;;7.55;3.58;;;19.50;99.90;;;;;;2073403;28;20109;-68
2021/08/16 02:45:17;;;;;;;10.73;3.08;;;19.50;99.90;;;;;;2073377;28;20026;-68
2021/08/16 02:46:19;;;;;;;5.75;2.83;;;19.50;99.90;;;;;;2073795;28;20018;-68
2021/08/16 02:47:21;;;;;;;6.60;3.13;;;19.50;99.90;;;;;;2075056;28;20099;-68
2021/08/16 02:48:22;;;;;;;5.13;2.50;;;19.50;99.90;;;;;;2072877;28;20680;-68
2021/08/16 02:49:23;;;;;;;6.25;3.13;;;19.50;99.90;;;;;;2073555;28;20382;-68
2021/08/16 02:50:24;;;;;;;5.95;3.20;;;19.50;99.90;;;;;;2073155;28;20065;-68
2021/08/16 02:51:26;;;;;;;8.07;2.97;;;19.50;99.90;;;;;;2073369;28;20056;-68
2021/08/16 02:52:26;;;;;;;9.85;3.22;;;19.50;99.90;;;;;;2073069;28;20022;-68
2021/08/16 02:53:27;;;;;;;6.20;2.75;;;19.50;99.90;;;;;;2072924;28;20378;-68
2021/08/16 02:54:27;;;;;;;8.32;3.33;;;19.40;99.90;;;;;;2073246;28;20402;-68
2021/08/16 02:55:28;;;;;;;4.95;2.92;;;19.40;99.90;;;;;;2073256;28;20054;-68
2021/08/16 02:56:29;;;;;;;8.77;2.90;;;19.40;99.90;;;;;;2072928;28;20033;-68
2021/08/16 02:57:30;;;;;;;7.10;2.75;;;19.40;99.90;;;;;;2073424;28;20034;-68
2021/08/16 02:58:31;;;;;;;7.70;3.00;;;19.40;99.90;;;;;;2073167;28;20034;-68
2021/08/16 02:59:31;;;;;;;9.23;3.35;;;19.40;99.90;;;;;;2073318;28;20026;-68
2021/08/16 03:00:32;;;;;;;4.75;2.58;;;19.40;99.90;;;;;;2077707;28;20068;-68
2021/08/16 03:01:32;;;;;;;11.23;3.45;;;19.40;99.90;;;;;;2076173;28;20022;-68
2021/08/16 03:02:33;;;;;;;5.30;2.53;;;19.40;99.90;;;;;;2072595;28;20033;-69
2021/08/16 03:03:34;;;;;;;8.85;3.10;;;19.40;99.90;;;;;;2072022;28;20034;-68
2021/08/16 03:04:34;;;;;;;6.95;2.88;;;19.40;99.90;;;;;;2072344;28;20458;-68
2021/08/16 03:05:35;;;;;;;6.93;2.92;;;19.40;99.90;;;;;;2071777;28;20026;-68
2021/08/16 03:06:36;;;;;;;7.93;2.90;;;19.40;99.90;;;;;;2072468;28;20033;-68
2021/08/16 03:07:36;;;;;;;8.73;3.03;;;19.40;99.90;;;;;;2072252;28;20033;-68
2021/08/16 03:08:37;;;;;;;7.93;2.95;;;19.40;99.90;;;;;;2072335;28;20034;-68
2021/08/16 03:09:38;;;;;;;8.15;3.03;;;19.40;99.90;;;;;;2072163;28;20026;-68
2021/08/16 03:10:39;;;;;;;10.93;3.28;;;19.40;99.90;;;;;;2070369;28;20026;-68
2021/08/16 03:11:39;;;;;;;9.00;3.35;;;19.30;99.90;;;;;;2070315;28;20081;-68
2021/08/16 03:12:40;;;;;;;7.22;3.15;;;19.30;99.90;;;;;;2071566;28;20092;-68
2021/08/16 03:13:40;;;;;;;7.25;3.35;;;19.30;99.90;;;;;;2071986;28;20625;-68
2021/08/16 03:14:41;;;;;;;11.68;3.22;;;19.30;99.90;;;;;;2074265;28;20422;-68
2021/08/16 03:15:42;;;;;;;8.00;3.08;;;19.30;99.90;;;;;;2070805;28;20022;-68
2021/08/16 03:16:42;;;;;;;8.25;3.10;;;19.30;99.90;;;;;;2071156;28;20026;-68
2021/08/16 03:17:43;;;;;;;11.23;4.25;;;19.30;99.90;;;;;;2071379;28;20069;-68
2021/08/16 03:18:43;;;;;;;10.32;3.35;;;19.30;99.90;;;;;;2071976;28;20060;-68
2021/08/16 03:19:44;;;;;;;11.20;3.60;;;19.30;99.90;;;;;;2071371;28;20069;-68
2021/08/16 03:20:44;;;;;;;10.10;3.97;;;19.30;99.90;;;;;;2071846;28;20029;-68
2021/08/16 03:21:45;;;;;;;13.77;3.83;;;19.30;99.90;;;;;;2071676;28;20022;-68
2021/08/16 03:22:45;;;;;;;9.32;3.75;;;19.30;99.90;;;;;;2071354;28;20030;-68
2021/08/16 03:23:46;;;;;;;8.00;3.58;;;19.30;99.90;;;;;;2071356;28;20034;-68
2021/08/16 03:24:46;;;;;;;8.73;3.45;;;19.30;99.90;;;;;;2071456;28;20554;-68
2021/08/16 03:25:47;;;;;;;9.88;3.60;;;19.30;99.90;;;;;;2071012;28;20084;-68
2021/08/16 03:26:48;;;;;;;10.00;3.35;;;19.30;99.90;;;;;;2071817;28;20026;-68
2021/08/16 03:27:48;;;;;;;9.52;3.80;;;19.30;99.90;;;;;;2074315;28;20026;-68
2021/08/16 03:28:49;;;;;;;9.70;3.67;;;19.30;99.90;;;;;;2078380;28;20025;-68
2021/08/16 03:29:49;;;;;;;13.63;3.90;;;19.30;99.90;;;;;;2069356;28;20045;-68
2021/08/16 03:30:50;;;;;;;8.77;4.10;;;19.30;99.90;;;;;;2071865;28;20026;-68
2021/08/16 03:31:51;;;;;;;10.82;3.90;;;19.30;99.90;;;;;;2071683;28;20355;-68
2021/08/16 03:32:52;;;;;;;10.23;4.55;;;19.30;99.90;;;;;;2063304;28;20022;-68
2021/08/16 03:33:53;;;;;;;11.05;4.43;;;19.30;99.90;;;;;;2066790;28;20101;-68
2021/08/16 03:34:54;;;;;;;7.35;3.90;;;19.20;99.90;;;;;;2071357;28;20044;-68
2021/08/16 03:35:54;;;;;;;12.85;3.95;;;19.20;99.90;;;;;;2071768;28;20030;-68
2021/08/16 03:36:55;;;;;;;9.20;3.60;;;19.30;99.90;;;;;;2071772;28;20025;-68
2021/08/16 03:37:56;;;;;;;11.45;4.40;;;19.20;99.90;;;;;;2071548;28;20021;-68
2021/08/16 03:38:56;;;;;;;6.15;3.97;;;19.20;99.90;;;;;;2070735;28;20159;-68
2021/08/16 03:39:57;;;;;;;9.35;4.18;;;19.20;99.90;;;;;;2071806;28;20026;-68
2021/08/16 03:40:58;;;;;;;10.38;4.30;;;19.20;99.90;;;;;;2071477;28;20026;-68
2021/08/16 03:41:59;;;;;;;10.32;4.90;;;19.20;99.90;;;;;;2071727;28;20030;-68
2021/08/16 03:42:59;;;;;;;13.88;5.22;;;19.20;99.90;;;;;;2071591;28;20030;-68
2021/08/16 03:44:00;;;;;;;7.63;4.07;;;19.20;99.90;;;;;;2071738;28;20022;-68
2021/08/16 03:45:03;;;;;;;9.90;4.43;;;19.20;99.90;;;;;;2071525;28;20084;-68
2021/08/16 03:46:03;;;;;;;11.68;4.65;;;19.20;99.90;;;;;;2071951;28;20030;-68
2021/08/16 03:47:06;;;;;;;9.70;4.25;;;19.20;99.90;;;;;;2071318;28;20036;-68
2021/08/16 03:48:06;;;;;;;13.20;5.15;;;19.20;99.90;;;;;;2072008;28;20025;-68
2021/08/16 03:49:07;;;;;;;10.98;4.72;;;19.20;99.90;;;;;;2071407;28;20030;-68
2021/08/16 03:50:09;;;;;;;10.43;4.43;;;19.20;99.90;;;;;;2071727;28;20018;-68
2021/08/16 03:51:11;;;;;;;14.40;4.60;;;19.20;99.90;;;;;;2071650;28;20488;-68
2021/08/16 03:52:11;;;;;;;10.98;4.57;;;19.20;99.90;;;;;;2071579;28;20442;-68
2021/08/16 03:53:12;;;;;;;10.23;4.68;;;19.10;99.90;;;;;;2071111;28;20437;-68
2021/08/16 03:54:12;;;;;;;15.35;4.53;;;19.20;99.90;;;;;;2071702;28;20072;-68
2021/08/16 03:55:13;;;;;;;13.65;4.78;;;19.10;99.90;;;;;;2073808;28;20029;-68
2021/08/16 03:56:13;;;;;;;11.05;4.63;;;19.10;99.90;;;;;;2076464;28;20056;-68
2021/08/16 03:57:14;;;;;;;13.73;4.75;;;19.10;99.90;;;;;;2071362;28;20025;-68
2021/08/16 03:58:15;;;;;;;14.35;4.85;;;19.20;99.90;;;;;;2071862;28;20026;-68
2021/08/16 03:59:15;;;;;;;15.23;4.60;;;19.20;99.90;;;;;;2071845;28;20437;-68
2021/08/16 04:00:16;;;;;;;9.52;4.30;;;19.20;99.90;;;;;;2071629;28;20072;-68
2021/08/16 04:01:17;;;;;;;8.90;5.10;;;19.20;99.90;;;;;;2071321;28;20030;-68
2021/08/16 04:02:18;;;;;;;9.23;4.05;;;19.20;99.90;;;;;;2071437;28;20058;-68
2021/08/16 04:03:18;;;;;;;10.95;4.13;;;19.20;99.90;;;;;;2070874;28;20026;-68
2021/08/16 04:04:19;;;;;;;10.30;5.30;;;19.10;99.90;;;;;;2071430;28;20363;-68
2021/08/16 04:05:20;;;;;;;16.05;5.07;;;19.10;99.90;;;;;;2071243;28;20097;-68
2021/08/16 04:06:20;;;;;;;12.45;4.82;;;19.10;99.90;;;;;;2071730;28;20037;-68
2021/08/16 04:07:21;;;;;;;10.93;4.95;;;19.10;99.90;;;;;;2071614;28;20073;-68
2021/08/16 04:08:21;;;;;;;11.65;4.22;;;19.10;99.90;;;;;;2071484;28;20621;-68
2021/08/16 04:09:22;;;;;;;10.98;4.40;;;19.10;99.90;;;;;;2071906;28;20037;-68
2021/08/16 04:10:23;;;;;;;12.13;4.63;;;19.10;99.90;;;;;;2071477;28;20401;-68
2021/08/16 04:11:24;;;;;;;13.35;4.68;;;19.10;99.90;;;;;;2071073;28;20026;-68
2021/08/16 04:12:24;;;;;;;11.75;4.57;;;19.20;99.90;;;;;;2071270;28;20030;-68
2021/08/16 04:13:26;;;;;;;8.40;4.20;;;19.20;99.90;;;;;;2071785;28;20101;-68
2021/08/16 04:14:27;;;;;;;13.02;4.65;;;19.20;99.90;;;;;;2072834;28;20097;-68
2021/08/16 04:15:27;;;;;;;11.00;4.60;;;19.10;99.90;;;;;;2073096;28;20033;-68
2021/08/16 04:16:28;;;;;;;14.00;5.40;;;19.20;99.90;;;;;;2072749;28;20061;-68
2021/08/16 04:17:28;;;;;;;10.48;4.35;;;19.10;99.90;;;;;;2072725;28;20105;-68
2021/08/16 04:18:29;;;;;;;15.68;4.68;;;19.20;99.90;;;;;;2072886;28;20076;-68
2021/08/16 04:19:29;;;;;;;11.55;4.20;;;19.10;99.90;;;;;;2072952;28;20734;-68
2021/08/16 04:20:30;;;;;;;12.50;4.53;;;19.20;99.90;;;;;;2071704;28;20030;-68
2021/08/16 04:21:31;;;;;;;13.13;4.70;;;19.10;99.90;;;;;;2071102;28;20647;-68
2021/08/16 04:22:31;;;;;;;13.38;4.90;;;19.10;99.90;;;;;;2070250;28;20096;-68
2021/08/16 04:23:32;;;;;;;13.65;4.40;;;19.10;99.90;;;;;;2072648;28;20485;-68
2021/08/16 04:24:32;;;;;;;10.60;4.47;;;19.10;99.90;;;;;;2072775;28;20022;-68
2021/08/16 04:25:33;;;;;;;7.78;3.75;;;19.10;99.90;;;;;;2072681;28;20022;-68
2021/08/16 04:26:33;;;;;;;13.45;4.78;;;19.10;99.90;;;;;;2072712;28;20478;-68
2021/08/16 04:27:34;;;;;;;8.68;4.75;;;19.10;99.90;;;;;;2070483;28;20027;-68
2021/08/16 04:28:35;;;;;;;8.98;4.25;;;19.10;99.90;;;;;;2068720;28;20022;-68
2021/08/16 04:29:35;;;;;;;10.20;4.40;;;19.10;99.90;;;;;;2068334;28;20352;-68
2021/08/16 04:30:36;;;;;;;11.10;4.85;;;19.10;99.90;;;;;;2068102;28;20060;-68
2021/08/16 04:31:37;;;;;;;10.23;4.82;;;19.10;99.90;;;;;;2066227;28;20675;-68
2021/08/16 04:32:37;;;;;;;10.93;4.75;;;19.10;99.90;;;;;;2068478;28;20054;-68
2021/08/16 04:33:38;;;;;;;9.35;4.38;;;19.10;99.90;;;;;;2072463;28;20080;-68
2021/08/16 04:34:38;;;;;;;12.70;5.10;;;19.10;99.90;;;;;;2072645;28;20033;-68
2021/08/16 04:35:39;;;;;;;10.18;4.88;;;19.10;99.90;;;;;;2072868;28;20486;-68
2021/08/16 04:36:40;;;;;;;10.95;4.70;;;19.10;99.90;;;;;;2074955;28;20053;-68
2021/08/16 04:37:41;;;;;;;11.10;4.72;;;19.10;99.90;;;;;;2071868;28;20029;-68
2021/08/16 04:38:42;;;;;;;10.27;4.50;;;19.10;99.90;;;;;;2067594;28;20477;-68
2021/08/16 04:39:42;;;;;;;15.10;5.60;;;19.10;99.90;;;;;;2072977;28;20860;-68
2021/08/16 04:40:43;;;;;;;15.05;4.75;;;19.10;99.90;;;;;;2072344;28;20084;-68
2021/08/16 04:41:43;;;;;;;13.10;5.45;;;19.10;99.90;;;;;;2072781;28;20520;-68
2021/08/16 04:42:44;;;;;;;12.32;4.78;;;19.10;99.90;;;;;;2072574;28;20104;-68
2021/08/16 04:43:45;;;;;;;16.10;5.10;;;19.10;99.90;;;;;;2072610;28;20021;-68
2021/08/16 04:44:46;;;;;;;12.95;5.20;;;19.10;99.90;;;;;;2072643;28;20097;-68
2021/08/16 04:45:47;;;;;;;11.15;5.47;;;19.10;99.90;;;;;;2072708;28;20029;-68
2021/08/16 04:46:48;;;;;;;12.55;5.05;;;19.10;99.90;;;;;;2072818;28;20493;-68
2021/08/16 04:47:48;;;;;;;12.82;5.75;;;19.10;99.90;;;;;;2072915;28;20417;-68
2021/08/16 04:48:49;;;;;;;11.48;5.15;;;19.10;99.90;;;;;;2072159;28;20037;-68
2021/08/16 04:49:50;;;;;;;15.48;5.45;;;19.10;99.90;;;;;;2072427;28;20049;-68
2021/08/16 04:50:50;;;;;;;8.07;4.57;;;19.20;99.90;;;;;;2071403;28;20041;-68
2021/08/16 04:51:51;;;;;;;10.90;5.32;;;19.10;99.90;;;;;;2072321;28;20080;-68
2021/08/16 04:52:51;;;;;;;11.00;5.68;;;19.10;99.90;;;;;;2069510;28;20025;-68
2021/08/16 04:53:52;;;;;;;13.77;5.45;;;19.10;99.90;;;;;;2072544;28;20025;-68
2021/08/16 04:54:52;;;;;;;10.50;5.43;;;19.10;99.90;;;;;;2072814;28;20060;-68
2021/08/16 04:55:53;;;;;;;9.52;5.38;;;19.10;99.90;;;;;;2072298;28;20018;-68
2021/08/16 04:56:54;;;;;;;11.20;5.15;;;19.00;99.90;;;;;;2070259;28;20026;-68
2021/08/16 04:57:54;;;;;;;9.45;5.00;;;19.10;99.90;;;;;;2072728;28;20030;-68
2021/08/16 04:58:57;;;;;;;12.35;5.80;;;19.10;99.90;;;;;;2073196;28;20347;-68
2021/08/16 04:59:58;;;;;;;8.35;5.78;;;19.00;99.90;;;;;;2072820;28;20429;-68
2021/08/16 05:00:59;;;;;;;14.23;6.00;;;19.10;99.90;;;;;;2072742;28;20475;-68
2021/08/16 05:01:59;;;;;;;11.77;6.40;;;19.00;99.90;;;;;;2072626;28;20378;-68
2021/08/16 05:03:02;;;;;;;13.80;6.13;;;19.00;99.90;;;;;;2072087;28;20374;-68
2021/08/16 05:04:02;;;;;;;12.50;5.65;;;19.00;99.90;;;;;;2072971;28;20028;-68
2021/08/16 05:05:14;;;;;;;12.40;5.20;;;19.00;99.90;;;;;;2072551;28;20018;-68
2021/08/16 05:06:15;;;;;;;13.63;5.72;;;19.00;99.90;;;;;;2072562;28;20022;-68
2021/08/16 05:07:15;;;;;;;11.73;5.72;;;19.00;99.90;;;;;;2073195;28;20505;-68
2021/08/16 05:08:16;;;;;;;10.88;4.90;;;19.00;99.90;;;;;;2072767;28;20029;-68
2021/08/16 05:09:16;;;;;;;11.70;5.68;;;19.10;99.90;;;;;;2072929;28;20022;-68
2021/08/16 05:10:19;;;;;;;14.30;5.72;;;19.00;99.90;;;;;;2072717;28;20153;-68
2021/08/16 05:11:19;;;;;;;11.70;5.25;;;19.10;99.90;;;;;;2072747;28;20022;-67
2021/08/16 05:12:20;;;;;;;14.13;5.53;;;19.10;99.90;;;;;;2072561;28;20107;-68
2021/08/16 05:13:20;;;;;;;12.18;5.20;;;19.10;99.90;;;;;;2072259;28;20022;-68
2021/08/16 05:14:21;;;;;;;10.90;5.68;;;19.10;99.90;;;;;;2072662;28;20049;-68
2021/08/16 05:15:22;;;;;;;12.43;5.78;;;19.10;99.90;;;;;;2073011;28;20452;-68